Time;durP1;ratioP1;P1;durP2;ratioP2;P2;SDS_P1;SDS_P2;PMS_P1;PMS_P2;Temp;Humidity;BMP_temperature;BMP_pressure;BME280_temperature;BME280_humidity;BME280_pressure;Samples;Min_cycle;Max_cycle;Signal;HPM_P1;HPM_P2
2021/07/07 00:00:43;;;;;;;3.50;0.90;;;22.20;69.70;;;;;;6299349;28;20112;-75
2021/07/07 00:03:44;;;;;;;1.73;0.77;;;22.20;69.60;;;;;;6297845;28;20158;-73
2021/07/07 00:06:45;;;;;;;1.15;0.50;;;22.10;69.60;;;;;;6300057;28;20408;-73
2021/07/07 00:09:47;;;;;;;2.30;0.68;;;22.10;69.60;;;;;;6316781;28;20094;-73
2021/07/07 00:12:48;;;;;;;5.68;1.13;;;22.20;69.80;;;;;;6274026;28;20025;-74
2021/07/07 00:15:50;;;;;;;2.45;0.77;;;22.20;69.80;;;;;;6299682;28;20177;-76
2021/07/07 00:18:53;;;;;;;1.27;0.50;;;22.20;69.80;;;;;;6266849;28;20045;-74
2021/07/07 00:21:58;;;;;;;1.33;0.57;;;22.20;69.80;;;;;;6249838;28;20406;-74
2021/07/07 00:24:59;;;;;;;0.93;0.60;;;22.20;69.70;;;;;;6284124;28;20064;-75
2021/07/07 00:28:01;;;;;;;2.33;0.70;;;22.20;69.70;;;;;;6271699;28;20041;-74
2021/07/07 00:31:02;;;;;;;0.50;0.40;;;22.20;69.70;;;;;;6293164;28;20127;-74
2021/07/07 00:34:03;;;;;;;0.82;0.40;;;22.20;69.80;;;;;;6318334;28;20036;-74
2021/07/07 00:37:04;;;;;;;1.52;0.60;;;22.20;70.00;;;;;;6322338;28;20032;-74
2021/07/07 00:40:07;;;;;;;1.85;0.52;;;22.20;70.10;;;;;;6289750;28;20036;-75
2021/07/07 00:43:08;;;;;;;2.22;0.60;;;22.30;70.10;;;;;;6293121;28;20036;-75
2021/07/07 00:46:09;;;;;;;0.60;0.40;;;22.30;70.00;;;;;;6325402;28;20036;-75
2021/07/07 00:49:13;;;;;;;0.50;0.38;;;22.30;69.90;;;;;;6303426;28;20033;-75
2021/07/07 00:52:14;;;;;;;0.70;0.60;;;22.30;69.90;;;;;;6306590;28;20049;-75
2021/07/07 00:55:16;;;;;;;0.43;0.43;;;22.30;69.80;;;;;;6288792;28;20032;-75
2021/07/07 00:58:22;;;;;;;0.50;0.43;;;22.30;69.60;;;;;;6319231;28;20397;-76
2021/07/07 01:01:23;;;;;;;2.15;0.45;;;22.30;69.60;;;;;;6300328;28;20044;-75
2021/07/07 01:04:24;;;;;;;0.40;0.40;;;22.30;69.50;;;;;;6320713;28;20020;-74
2021/07/07 01:07:25;;;;;;;1.70;0.68;;;22.30;69.50;;;;;;6322884;28;20040;-74
2021/07/07 01:10:27;;;;;;;0.75;0.60;;;22.30;69.50;;;;;;6280839;28;20052;-74
2021/07/07 01:13:28;;;;;;;0.40;0.40;;;22.40;69.30;;;;;;6301457;28;20079;-74
2021/07/07 01:16:30;;;;;;;0.90;0.60;;;22.40;69.30;;;;;;6283900;28;20036;-75
2021/07/07 01:19:31;;;;;;;1.20;0.73;;;22.40;69.10;;;;;;6301611;28;20040;-74
2021/07/07 01:22:32;;;;;;;1.27;0.60;;;22.40;69.10;;;;;;6286819;28;20040;-74
2021/07/07 01:25:34;;;;;;;0.30;0.30;;;22.30;69.00;;;;;;6250740;28;20045;-74
2021/07/07 01:28:35;;;;;;;1.17;0.70;;;22.30;69.10;;;;;;6250775;28;20417;-75
2021/07/07 01:31:41;;;;;;;1.35;0.60;;;22.30;69.90;;;;;;6270462;28;20041;-74
2021/07/07 01:34:42;;;;;;;4.07;0.70;;;22.30;69.20;;;;;;6274166;28;20128;-74
2021/07/07 01:37:44;;;;;;;2.05;0.90;;;22.30;69.30;;;;;;6295309;28;20035;-74
2021/07/07 01:40:46;;;;;;;0.98;0.77;;;22.30;69.30;;;;;;6282207;28;20025;-74
2021/07/07 01:43:47;;;;;;;1.13;0.70;;;22.30;69.30;;;;;;6272326;28;20116;-74
2021/07/07 01:46:48;;;;;;;2.40;0.80;;;22.30;69.30;;;;;;6288085;28;20029;-74
2021/07/07 01:49:49;;;;;;;1.38;0.88;;;22.30;69.30;;;;;;6299260;28;20179;-74
2021/07/07 01:52:52;;;;;;;0.63;0.50;;;22.30;69.20;;;;;;6289312;28;20071;-74
2021/07/07 01:55:55;;;;;;;3.38;0.88;;;22.30;69.40;;;;;;6297844;28;20043;-74
2021/07/07 01:58:56;;;;;;;3.20;0.77;;;22.20;70.50;;;;;;6269189;28;20365;-74
2021/07/07 02:01:57;;;;;;;1.33;0.80;;;22.20;69.80;;;;;;6297758;28;20024;-74
2021/07/07 02:04:58;;;;;;;1.52;0.77;;;22.20;69.90;;;;;;6314713;28;20086;-75
2021/07/07 02:08:01;;;;;;;1.42;0.90;;;22.10;69.80;;;;;;6297012;28;20107;-74
2021/07/07 02:11:03;;;;;;;3.10;1.10;;;22.10;69.90;;;;;;6279300;28;20465;-76
2021/07/07 02:14:04;;;;;;;1.02;0.70;;;22.10;70.00;;;;;;6271752;28;20354;-76
2021/07/07 02:17:05;;;;;;;1.65;0.65;;;22.00;70.10;;;;;;6273939;28;20366;-75
2021/07/07 02:20:08;;;;;;;2.92;0.50;;;22.00;70.20;;;;;;6289141;28;20519;-76
2021/07/07 02:23:11;;;;;;;2.78;1.00;;;22.00;70.40;;;;;;6274754;28;20033;-75
2021/07/07 02:26:14;;;;;;;1.67;1.25;;;22.00;70.70;;;;;;6296892;28;20412;-74
2021/07/07 02:29:15;;;;;;;0.80;0.70;;;21.90;70.90;;;;;;6295496;28;20131;-74
2021/07/07 02:32:16;;;;;;;4.50;0.70;;;21.90;71.00;;;;;;6296549;28;20037;-75
2021/07/07 02:35:21;;;;;;;1.15;0.65;;;21.90;71.20;;;;;;6296593;28;20077;-75
2021/07/07 02:38:24;;;;;;;1.40;0.63;;;21.80;71.30;;;;;;6294515;28;20472;-75
2021/07/07 02:41:25;;;;;;;2.28;0.77;;;21.80;71.50;;;;;;6299334;28;20054;-75
2021/07/07 02:44:27;;;;;;;1.27;0.60;;;21.80;71.50;;;;;;6299617;28;20032;-75
2021/07/07 02:47:28;;;;;;;1.48;0.70;;;21.80;71.40;;;;;;6281897;28;20052;-75
2021/07/07 02:50:30;;;;;;;6.40;2.50;;;21.80;71.50;;;;;;6297869;28;20052;-75
2021/07/07 02:53:31;;;;;;;2.15;0.95;;;21.80;71.50;;;;;;6297531;28;20052;-75
2021/07/07 02:56:32;;;;;;;0.82;0.60;;;21.80;71.50;;;;;;6298025;28;20047;-75
2021/07/07 02:59:34;;;;;;;1.80;0.93;;;21.90;71.40;;;;;;6296762;28;20115;-75
2021/07/07 03:02:35;;;;;;;1.30;0.77;;;21.80;71.30;;;;;;6281412;28;20036;-75
2021/07/07 03:05:59;;;;;;;1.80;0.90;;;21.80;71.20;;;;;;6322679;28;20085;-75
2021/07/07 03:09:02;;;;;;;4.28;0.90;;;21.80;71.40;;;;;;6278371;28;20037;-75
2021/07/07 03:12:03;;;;;;;1.00;0.80;;;21.80;71.30;;;;;;6306233;28;20112;-75
2021/07/07 03:15:06;;;;;;;1.02;0.90;;;21.80;71.50;;;;;;6295095;28;20048;-74
2021/07/07 03:18:08;;;;;;;3.33;0.90;;;21.80;71.50;;;;;;6277594;28;20520;-74
2021/07/07 03:21:11;;;;;;;0.80;0.70;;;21.90;71.70;;;;;;6295670;28;20036;-74
2021/07/07 03:24:12;;;;;;;1.38;0.85;;;21.80;71.50;;;;;;6296504;28;20028;-74
2021/07/07 03:27:16;;;;;;;3.60;1.10;;;21.90;71.70;;;;;;6300093;28;20120;-74
2021/07/07 03:30:17;;;;;;;1.52;0.95;;;21.80;71.60;;;;;;6299738;28;20032;-74
2021/07/07 03:33:19;;;;;;;1.70;1.00;;;21.80;71.80;;;;;;6285527;28;20130;-75
2021/07/07 03:36:20;;;;;;;2.15;0.88;;;21.90;71.80;;;;;;6291370;28;20052;-75
2021/07/07 03:39:21;;;;;;;1.30;0.93;;;21.80;71.80;;;;;;6274741;28;20033;-75
2021/07/07 03:42:22;;;;;;;2.13;1.00;;;21.80;71.80;;;;;;6281136;28;20381;-74
2021/07/07 03:45:24;;;;;;;1.27;1.00;;;21.90;71.80;;;;;;6300181;28;20051;-76
2021/07/07 03:48:25;;;;;;;1.50;1.00;;;21.90;71.80;;;;;;6299527;28;20036;-75
2021/07/07 03:51:26;;;;;;;1.58;1.00;;;21.90;71.80;;;;;;6298612;28;20121;-74
2021/07/07 03:54:27;;;;;;;1.55;1.10;;;21.90;71.80;;;;;;6314277;28;20459;-75
2021/07/07 03:57:30;;;;;;;1.23;0.93;;;21.90;71.60;;;;;;6298906;28;20045;-74
2021/07/07 04:00:32;;;;;;;1.15;0.90;;;21.90;72.50;;;;;;6298789;28;20028;-76
2021/07/07 04:03:33;;;;;;;0.82;0.60;;;21.90;71.80;;;;;;6273835;28;20033;-74
2021/07/07 04:06:35;;;;;;;2.20;0.88;;;21.90;71.80;;;;;;6273990;28;20033;-74
2021/07/07 04:09:37;;;;;;;1.48;0.73;;;21.90;71.80;;;;;;6290807;28;20442;-74
2021/07/07 04:12:40;;;;;;;3.28;1.17;;;21.90;71.60;;;;;;6291820;28;20040;-75
2021/07/07 04:15:41;;;;;;;2.80;0.93;;;21.90;71.60;;;;;;6280461;28;20056;-73
2021/07/07 04:18:42;;;;;;;1.13;0.70;;;22.00;71.50;;;;;;6299680;28;20040;-74
2021/07/07 04:21:43;;;;;;;0.93;0.80;;;22.00;71.30;;;;;;6298483;28;20111;-74
2021/07/07 04:24:44;;;;;;;0.90;0.68;;;22.00;71.20;;;;;;6315369;28;20049;-74
2021/07/07 04:27:47;;;;;;;1.05;0.73;;;22.00;71.00;;;;;;6298439;28;20461;-74
2021/07/07 04:30:48;;;;;;;1.35;0.80;;;22.00;70.80;;;;;;6298671;28;20028;-73
2021/07/07 04:33:49;;;;;;;1.83;0.80;;;22.00;70.70;;;;;;6296594;28;20154;-74
2021/07/07 04:36:50;;;;;;;4.13;1.00;;;22.00;70.60;;;;;;6297058;28;20040;-74
2021/07/07 04:39:54;;;;;;;2.05;1.05;;;22.10;70.50;;;;;;6275360;28;20115;-75
2021/07/07 04:42:55;;;;;;;2.15;0.88;;;22.10;70.50;;;;;;6282117;28;20115;-75
2021/07/07 04:45:57;;;;;;;3.65;0.77;;;22.10;70.50;;;;;;6298225;28;20032;-76
2021/07/07 04:48:59;;;;;;;1.85;0.80;;;22.20;70.50;;;;;;6298248;28;20040;-74
2021/07/07 04:52:02;;;;;;;1.88;0.77;;;22.20;70.30;;;;;;6297679;28;20056;-75
2021/07/07 04:55:05;;;;;;;3.75;0.77;;;22.20;70.20;;;;;;6298579;28;20040;-75
2021/07/07 04:58:08;;;;;;;5.57;0.95;;;22.20;70.10;;;;;;6314317;28;20032;-74
2021/07/07 05:01:09;;;;;;;2.47;0.88;;;22.20;70.10;;;;;;6298280;28;20263;-75
2021/07/07 05:04:10;;;;;;;3.28;0.93;;;22.30;70.00;;;;;;6316610;28;20036;-75
2021/07/07 05:07:11;;;;;;;0.95;0.77;;;22.30;69.90;;;;;;6324174;28;20396;-75
2021/07/07 05:10:13;;;;;;;4.22;1.00;;;22.30;69.70;;;;;;6322904;28;20042;-75
2021/07/07 05:13:18;;;;;;;1.85;0.90;;;22.30;69.60;;;;;;6323749;28;20024;-75
2021/07/07 05:16:20;;;;;;;3.03;1.20;;;22.30;69.50;;;;;;6323519;28;20376;-75
2021/07/07 05:19:22;;;;;;;2.50;0.90;;;22.40;69.50;;;;;;6293386;28;20369;-75
2021/07/07 05:22:23;;;;;;;3.22;1.25;;;22.40;69.30;;;;;;6259732;28;20033;-75
2021/07/07 05:25:25;;;;;;;1.55;0.98;;;22.40;69.20;;;;;;6258142;28;20044;-75
2021/07/07 05:28:26;;;;;;;2.40;1.25;;;22.40;69.30;;;;;;6299389;28;20028;-75
2021/07/07 05:31:27;;;;;;;0.73;0.63;;;22.40;69.30;;;;;;6296953;28;20374;-75
2021/07/07 05:34:28;;;;;;;1.38;1.00;;;22.40;69.40;;;;;;6276815;28;20044;-75
2021/07/07 05:37:29;;;;;;;2.78;1.10;;;22.40;69.30;;;;;;6274072;28;20386;-75
2021/07/07 05:40:31;;;;;;;2.55;1.20;;;22.40;69.20;;;;;;6273150;28;20095;-75
2021/07/07 05:43:32;;;;;;;1.52;1.08;;;22.40;69.30;;;;;;6283893;28;20132;-75
2021/07/07 05:46:33;;;;;;;3.00;1.27;;;22.40;69.30;;;;;;6314420;28;20029;-75
2021/07/07 05:49:35;;;;;;;4.25;1.42;;;22.50;69.40;;;;;;6314412;28;20105;-74
2021/07/07 05:52:36;;;;;;;2.58;1.58;;;22.50;69.40;;;;;;6314316;28;20041;-74
2021/07/07 05:55:37;;;;;;;2.38;1.02;;;22.50;69.40;;;;;;6298430;28;20052;-74
2021/07/07 05:58:39;;;;;;;4.80;1.05;;;22.50;69.40;;;;;;6296538;28;20461;-74
2021/07/07 06:01:40;;;;;;;1.70;1.00;;;22.50;69.20;;;;;;6297899;28;20048;-76
2021/07/07 06:04:42;;;;;;;1.48;1.27;;;22.60;69.10;;;;;;6299282;28;20042;-74
2021/07/07 06:07:44;;;;;;;3.72;1.20;;;22.60;69.00;;;;;;6306252;28;20102;-74
2021/07/07 06:10:46;;;;;;;2.05;1.25;;;22.60;68.90;;;;;;6289728;28;20040;-76
2021/07/07 06:13:47;;;;;;;4.30;2.13;;;22.60;68.70;;;;;;6295754;28;20036;-75
2021/07/07 06:16:50;;;;;;;1.83;1.20;;;22.70;68.70;;;;;;6274094;28;20179;-75
2021/07/07 06:19:52;;;;;;;5.65;1.17;;;22.70;68.70;;;;;;6256153;28;20048;-75
2021/07/07 06:22:53;;;;;;;1.65;0.95;;;22.80;68.30;;;;;;6277920;28;20074;-74
2021/07/07 06:25:56;;;;;;;1.30;0.68;;;22.80;68.10;;;;;;6287159;28;20041;-74
2021/07/07 06:28:58;;;;;;;4.18;1.10;;;22.90;68.00;;;;;;6300552;28;20067;-75
2021/07/07 06:31:59;;;;;;;3.75;0.70;;;23.00;67.80;;;;;;6295631;28;20045;-74
2021/07/07 06:35:01;;;;;;;0.57;0.57;;;23.00;67.50;;;;;;6285336;28;20067;-75
2021/07/07 06:38:04;;;;;;;1.35;0.98;;;23.10;67.20;;;;;;6281021;28;20109;-75
2021/07/07 06:41:05;;;;;;;1.30;1.00;;;23.20;67.20;;;;;;6314992;28;20134;-75
2021/07/07 06:44:06;;;;;;;4.25;1.20;;;23.20;67.10;;;;;;6281355;28;20037;-75
2021/07/07 06:47:07;;;;;;;3.53;1.73;;;23.30;67.10;;;;;;6297330;28;20032;-75
2021/07/07 06:50:11;;;;;;;2.13;1.08;;;23.30;66.90;;;;;;6288192;28;20029;-74
2021/07/07 06:53:12;;;;;;;2.33;1.50;;;23.30;66.70;;;;;;6272786;28;20037;-76
2021/07/07 06:56:14;;;;;;;3.28;1.10;;;23.40;66.60;;;;;;6272312;28;20064;-76
2021/07/07 06:59:15;;;;;;;0.57;0.57;;;23.40;66.60;;;;;;6272650;28;20395;-76
2021/07/07 07:02:17;;;;;;;2.25;0.85;;;23.40;66.40;;;;;;6279138;28;20090;-76
2021/07/07 07:05:19;;;;;;;1.35;0.90;;;23.40;66.50;;;;;;6282898;28;20095;-76
2021/07/07 07:08:20;;;;;;;4.28;1.05;;;23.40;66.40;;;;;;6288241;28;20391;-75
2021/07/07 07:11:21;;;;;;;1.98;0.98;;;23.50;66.30;;;;;;6296715;28;20353;-76
2021/07/07 07:14:23;;;;;;;2.72;1.25;;;23.60;66.20;;;;;;6297107;28;20099;-75
2021/07/07 07:17:26;;;;;;;6.35;1.65;;;23.60;66.00;;;;;;6297365;28;20377;-75
2021/07/07 07:20:29;;;;;;;1.90;1.00;;;23.70;65.70;;;;;;6297099;28;20036;-75
2021/07/07 07:23:32;;;;;;;3.80;1.45;;;23.90;65.50;;;;;;6297173;28;20044;-75
2021/07/07 07:26:34;;;;;;;4.15;1.58;;;23.90;66.10;;;;;;6296893;28;20420;-75
2021/07/07 07:29:40;;;;;;;4.40;1.92;;;24.10;65.10;;;;;;6296913;28;20169;-74
2021/07/07 07:32:41;;;;;;;2.70;1.40;;;24.20;64.80;;;;;;6291836;28;20462;-76
2021/07/07 07:35:43;;;;;;;2.50;1.30;;;24.30;64.40;;;;;;6313917;28;20075;-75
2021/07/07 07:38:46;;;;;;;3.58;1.55;;;24.40;64.30;;;;;;6273830;28;20090;-76
2021/07/07 07:41:47;;;;;;;5.30;1.50;;;24.50;64.10;;;;;;6271515;28;20450;-75
2021/07/07 07:44:49;;;;;;;2.38;1.58;;;24.60;63.70;;;;;;6294697;28;20032;-74
2021/07/07 07:47:51;;;;;;;8.43;2.22;;;24.60;63.30;;;;;;6296563;28;20047;-74
2021/07/07 07:50:52;;;;;;;2.88;1.85;;;24.70;63.10;;;;;;6296151;28;20523;-74
2021/07/07 07:53:54;;;;;;;15.25;2.40;;;24.80;62.90;;;;;;6296044;28;20497;-74
2021/07/07 07:56:55;;;;;;;2.53;1.42;;;24.90;62.60;;;;;;6311264;28;20090;-77
2021/07/07 07:59:57;;;;;;;3.58;1.20;;;25.00;62.20;;;;;;6313167;28;20055;-74
2021/07/07 08:02:58;;;;;;;4.10;1.17;;;25.10;61.80;;;;;;6295842;28;20370;-74
2021/07/07 08:05:59;;;;;;;3.80;1.40;;;25.30;61.30;;;;;;6296109;28;20037;-74
2021/07/07 08:09:01;;;;;;;5.63;1.30;;;25.60;60.80;;;;;;6312418;28;20040;-76
2021/07/07 08:12:03;;;;;;;9.57;1.83;;;25.70;60.10;;;;;;6300603;28;20053;-76
2021/07/07 08:15:06;;;;;;;3.63;1.23;;;25.80;59.80;;;;;;6299233;28;20036;-76
2021/07/07 08:18:07;;;;;;;6.93;1.35;;;25.90;59.50;;;;;;6316889;28;20047;-75
2021/07/07 08:21:08;;;;;;;7.32;1.80;;;26.00;59.20;;;;;;6299435;28;20036;-75
2021/07/07 08:24:09;;;;;;;5.03;1.60;;;26.00;58.80;;;;;;6316695;28;20113;-75
2021/07/07 08:27:10;;;;;;;4.47;1.23;;;26.20;58.60;;;;;;6300025;28;20032;-75
2021/07/07 08:30:13;;;;;;;1.60;1.15;;;26.20;58.20;;;;;;6304520;28;20417;-75
2021/07/07 08:33:16;;;;;;;7.05;1.15;;;26.30;58.00;;;;;;6302040;28;20112;-74
2021/07/07 08:36:22;;;;;;;6.25;1.25;;;26.40;57.80;;;;;;6299700;28;20379;-74
2021/07/07 08:39:24;;;;;;;14.30;1.38;;;26.50;57.40;;;;;;6297844;28;20111;-74
2021/07/07 08:42:25;;;;;;;5.28;0.70;;;26.60;56.90;;;;;;6311714;28;20045;-74
2021/07/07 08:45:27;;;;;;;2.42;0.80;;;26.60;56.20;;;;;;6299901;28;20032;-75
2021/07/07 08:48:28;;;;;;;5.32;1.83;;;26.60;56.20;;;;;;6299454;28;20024;-75
2021/07/07 08:51:30;;;;;;;2.10;1.55;;;26.60;56.20;;;;;;6315768;28;20036;-75
2021/07/07 08:54:32;;;;;;;6.13;1.98;;;26.70;56.10;;;;;;6261683;28;20132;-74
2021/07/07 08:57:42;;;;;;;2.35;1.10;;;26.80;55.80;;;;;;6275563;28;20430;-76
2021/07/07 09:00:45;;;;;;;7.03;1.40;;;26.90;55.60;;;;;;6297309;28;20354;-76
2021/07/07 09:03:47;;;;;;;6.35;2.58;;;27.10;55.40;;;;;;6299494;28;20476;-76
2021/07/07 09:07:00;;;;;;;6.68;2.92;;;27.20;55.00;;;;;;6299864;28;20040;-75
2021/07/07 09:10:01;;;;;;;5.32;2.95;;;27.20;54.60;;;;;;6298697;28;20429;-76
2021/07/07 09:13:17;;;;;;;4.32;1.98;;;27.20;54.40;;;;;;6300317;28;20067;-76
2021/07/07 09:16:19;;;;;;;1.63;1.02;;;27.30;54.30;;;;;;6296207;28;20061;-76
2021/07/07 09:19:23;;;;;;;12.10;1.92;;;27.50;53.90;;;;;;6297250;28;20036;-75
2021/07/07 09:22:28;;;;;;;1.20;0.77;;;27.60;53.70;;;;;;6297912;28;20136;-74
2021/07/07 09:25:29;;;;;;;1.00;0.90;;;27.80;53.70;;;;;;6296198;28;20158;-75
2021/07/07 09:28:36;;;;;;;1.08;0.98;;;28.00;53.30;;;;;;6279734;28;20047;-74
2021/07/07 09:31:41;;;;;;;2.65;0.93;;;28.30;52.70;;;;;;6298168;28;20024;-75
2021/07/07 09:34:43;;;;;;;7.75;1.65;;;28.40;52.00;;;;;;6320832;28;20329;-76
2021/07/07 09:37:56;;;;;;;7.32;2.28;;;28.50;51.80;;;;;;6322013;28;20047;-75
2021/07/07 09:40:58;;;;;;;8.93;2.90;;;28.70;51.60;;;;;;6320770;28;20070;-74
2021/07/07 09:44:00;;;;;;;6.20;2.08;;;28.70;51.00;;;;;;6290048;28;20454;-75
2021/07/07 09:47:04;;;;;;;3.90;1.05;;;28.90;50.60;;;;;;6296717;28;20036;-75
2021/07/07 09:50:08;;;;;;;6.30;1.40;;;29.00;50.50;;;;;;6296535;28;20131;-77
2021/07/07 09:53:11;;;;;;;7.78;1.52;;;29.10;50.30;;;;;;6296368;28;20045;-75
2021/07/07 09:56:13;;;;;;;5.13;1.45;;;29.10;50.20;;;;;;6295803;28;20052;-75
2021/07/07 09:59:14;;;;;;;16.20;2.53;;;29.20;50.10;;;;;;6293037;28;20090;-75
2021/07/07 10:02:16;;;;;;;6.38;2.78;;;29.20;50.00;;;;;;6295070;28;20067;-75
2021/07/07 10:05:18;;;;;;;6.93;2.45;;;29.30;49.20;;;;;;6295995;28;20038;-76
2021/07/07 10:08:20;;;;;;;5.25;3.35;;;29.20;49.20;;;;;;6279396;28;20055;-76
2021/07/07 10:11:23;;;;;;;14.65;7.20;;;29.10;49.10;;;;;;6295542;28;20029;-75
2021/07/07 10:14:24;;;;;;;7.65;3.17;;;29.10;49.00;;;;;;6296138;28;20423;-75
2021/07/07 10:17:26;;;;;;;3.92;2.05;;;29.10;48.80;;;;;;6295574;28;20042;-77
2021/07/07 10:20:28;;;;;;;1.00;0.95;;;29.00;48.50;;;;;;6296225;28;20055;-76
2021/07/07 10:23:32;;;;;;;1.65;0.98;;;29.00;48.70;;;;;;6296767;28;20041;-76
2021/07/07 10:26:34;;;;;;;5.38;2.75;;;29.00;48.60;;;;;;6296830;28;20036;-76
2021/07/07 10:29:36;;;;;;;1.30;0.75;;;29.10;48.30;;;;;;6296320;28;20036;-76
2021/07/07 10:32:37;;;;;;;3.05;1.10;;;29.20;47.60;;;;;;6280484;28;20059;-75
2021/07/07 10:35:40;;;;;;;1.50;1.20;;;29.20;47.70;;;;;;6312989;28;20047;-77
2021/07/07 10:38:59;;;;;;;1.10;1.00;;;29.10;48.20;;;;;;6298607;28;20473;-75
2021/07/07 10:42:05;;;;;;;1.27;0.90;;;29.10;48.50;;;;;;6288163;28;20112;-76
2021/07/07 10:45:06;;;;;;;2.47;1.20;;;29.00;48.60;;;;;;6291667;28;20138;-75
2021/07/07 10:48:29;;;;;;;1.38;1.00;;;29.00;48.90;;;;;;6295336;28;20025;-76
2021/07/07 10:51:31;;;;;;;2.08;1.20;;;28.90;49.00;;;;;;6291235;28;20090;-75
2021/07/07 10:54:34;;;;;;;3.28;1.00;;;29.00;48.90;;;;;;6291419;28;20064;-75
2021/07/07 10:57:36;;;;;;;2.08;1.23;;;29.10;48.60;;;;;;6274589;28;20119;-77
2021/07/07 11:00:41;;;;;;;3.17;0.80;;;29.20;47.90;;;;;;6291628;28;20048;-75
2021/07/07 11:04:01;;;;;;;1.38;0.70;;;29.20;47.40;;;;;;6291822;28;20052;-75
2021/07/07 11:07:23;;;;;;;1.00;0.80;;;29.10;47.10;;;;;;6294609;28;20028;-75
2021/07/07 11:10:25;;;;;;;1.02;0.90;;;29.30;46.80;;;;;;6307870;28;20043;-75
2021/07/07 11:13:43;;;;;;;2.42;0.82;;;30.30;45.20;;;;;;6274894;28;20437;-75
2021/07/07 11:16:55;;;;;;;2.80;1.00;;;31.60;43.00;;;;;;6290422;28;20127;-75
2021/07/07 11:20:00;;;;;;;1.60;0.80;;;33.10;40.70;;;;;;6290262;28;20407;-74
2021/07/07 11:23:07;;;;;;;0.90;0.73;;;34.10;38.80;;;;;;6291434;28;20028;-75
2021/07/07 11:26:09;;;;;;;1.23;0.60;;;34.90;37.10;;;;;;6292364;28;20032;-74
2021/07/07 11:29:17;;;;;;;2.83;0.90;;;35.50;36.20;;;;;;6291683;28;20032;-75
2021/07/07 11:32:35;;;;;;;1.58;0.80;;;36.10;35.00;;;;;;6292152;28;20037;-75
2021/07/07 11:35:39;;;;;;;2.23;0.73;;;35.60;35.00;;;;;;6290947;28;20046;-76
2021/07/07 11:38:40;;;;;;;2.55;0.70;;;35.40;35.90;;;;;;6291134;28;20052;-74
2021/07/07 11:41:41;;;;;;;2.78;0.65;;;35.80;35.60;;;;;;6291889;28;20038;-75
2021/07/07 11:44:44;;;;;;;2.05;0.80;;;36.20;34.80;;;;;;6309455;28;20033;-74
2021/07/07 11:47:51;;;;;;;0.85;0.60;;;36.10;35.00;;;;;;6297889;28;20056;-75
2021/07/07 11:50:55;;;;;;;;;;;36.00;34.80;;;;;;6271829;28;20036;-75
2021/07/07 11:53:57;;;;;;;2.00;0.70;;;36.40;34.40;;;;;;6269400;28;19920;-75
2021/07/07 11:56:59;;;;;;;0.60;0.60;;;36.80;33.50;;;;;;6311223;28;20060;-75
2021/07/07 12:00:00;;;;;;;0.60;0.60;;;36.40;33.70;;;;;;6296009;28;20166;-75
2021/07/07 12:03:02;;;;;;;0.63;0.63;;;36.50;33.60;;;;;;6294591;28;20658;-76
2021/07/07 12:06:10;;;;;;;0.52;0.52;;;36.80;33.20;;;;;;6291743;28;20108;-76
2021/07/07 12:09:16;;;;;;;1.30;0.65;;;37.20;32.20;;;;;;6271787;28;20029;-76
2021/07/07 12:12:17;;;;;;;3.80;0.77;;;37.20;31.70;;;;;;6272331;28;20033;-76
2021/07/07 12:15:23;;;;;;;3.15;0.70;;;37.20;31.60;;;;;;6270574;28;20044;-76
2021/07/07 12:18:28;;;;;;;1.15;0.68;;;37.30;31.50;;;;;;6293477;28;20115;-75
2021/07/07 12:21:42;;;;;;;0.73;0.73;;;37.60;31.40;;;;;;6295876;28;20039;-75
2021/07/07 12:24:43;;;;;;;2.88;0.77;;;37.80;30.90;;;;;;6312867;28;20029;-74
2021/07/07 12:27:45;;;;;;;1.77;0.75;;;37.70;30.90;;;;;;6278567;28;20047;-74
2021/07/07 12:30:46;;;;;;;2.25;0.70;;;38.00;30.70;;;;;;6294396;28;20051;-74
2021/07/07 12:33:52;;;;;;;1.25;0.77;;;38.10;30.10;;;;;;6294654;28;20024;-75
2021/07/07 12:36:57;;;;;;;0.85;0.57;;;38.00;30.00;;;;;;6296080;28;20047;-74
2021/07/07 12:40:08;;;;;;;0.50;0.50;;;37.90;29.90;;;;;;6277195;28;20036;-75
2021/07/07 12:43:16;;;;;;;2.45;0.70;;;37.50;30.20;;;;;;6283580;28;20033;-74
2021/07/07 12:46:17;;;;;;;1.58;0.65;;;37.20;30.90;;;;;;6304086;28;20035;-75
2021/07/07 12:49:33;;;;;;;0.95;0.80;;;37.00;30.80;;;;;;6297985;28;20047;-75
2021/07/07 12:52:41;;;;;;;1.08;0.90;;;36.60;31.10;;;;;;6295557;28;20041;-75
2021/07/07 12:55:43;;;;;;;1.02;0.75;;;36.60;31.00;;;;;;6300456;28;20052;-74
2021/07/07 12:58:45;;;;;;;0.63;0.63;;;36.80;30.50;;;;;;6282955;28;20163;-75
2021/07/07 13:01:46;;;;;;;1.55;0.73;;;37.20;30.00;;;;;;6301171;28;20119;-75
2021/07/07 13:04:47;;;;;;;1.73;1.30;;;37.70;29.60;;;;;;6323413;28;20057;-75
2021/07/07 13:07:56;;;;;;;0.80;0.80;;;37.90;29.30;;;;;;6312706;28;20028;-75
2021/07/07 13:10:58;;;;;;;1.92;1.00;;;38.20;28.70;;;;;;6321828;28;20040;-75
2021/07/07 13:14:00;;;;;;;1.40;1.20;;;38.70;28.20;;;;;;6319566;28;20479;-75
2021/07/07 13:17:02;;;;;;;0.77;0.77;;;39.10;28.00;;;;;;6302436;28;20051;-75
2021/07/07 13:20:04;;;;;;;5.22;2.35;;;39.20;27.60;;;;;;6297013;28;20047;-74
2021/07/07 13:23:05;;;;;;;3.65;1.40;;;38.60;28.10;;;;;;6297417;28;20029;-75
2021/07/07 13:26:26;;;;;;;2.13;1.30;;;38.10;28.70;;;;;;6294405;28;20048;-76
2021/07/07 13:29:42;;;;;;;4.07;1.30;;;38.00;28.70;;;;;;6271472;28;20316;-76
2021/07/07 13:32:47;;;;;;;2.10;1.30;;;37.50;28.90;;;;;;6264966;28;20047;-75
2021/07/07 13:35:48;;;;;;;2.60;1.38;;;38.20;28.70;;;;;;6296571;28;20045;-76
2021/07/07 13:38:50;;;;;;;2.10;1.25;;;38.60;27.80;;;;;;6254887;28;20025;-75
2021/07/07 13:41:52;;;;;;;2.67;1.67;;;38.70;27.70;;;;;;6294625;28;20065;-75
2021/07/07 13:44:54;;;;;;;2.83;1.50;;;39.30;27.20;;;;;;6297380;28;20040;-75
2021/07/07 13:47:55;;;;;;;4.63;1.55;;;39.30;27.00;;;;;;6296463;28;20032;-76
2021/07/07 13:50:56;;;;;;;11.55;1.88;;;39.30;27.00;;;;;;6299906;28;20396;-74
2021/07/07 13:53:58;;;;;;;4.63;2.05;;;38.70;27.40;;;;;;6299091;28;20055;-75
2021/07/07 13:56:59;;;;;;;2.83;1.80;;;38.00;28.20;;;;;;6303027;28;20044;-75
2021/07/07 14:00:00;;;;;;;3.58;2.13;;;37.30;28.90;;;;;;6279891;28;20504;-74
2021/07/07 14:03:02;;;;;;;4.53;2.25;;;36.60;29.70;;;;;;6288395;28;20033;-75
2021/07/07 14:06:03;;;;;;;4.43;2.00;;;37.20;29.30;;;;;;6281983;28;20032;-74
2021/07/07 14:09:05;;;;;;;4.88;2.08;;;38.40;28.00;;;;;;6281176;28;20044;-76
2021/07/07 14:12:07;;;;;;;5.03;2.30;;;39.50;26.90;;;;;;6240395;28;20037;-75
2021/07/07 14:15:08;;;;;;;3.55;1.98;;;40.20;26.00;;;;;;6247788;28;20037;-75
2021/07/07 14:18:10;;;;;;;19.13;3.38;;;39.50;26.30;;;;;;6302433;28;20043;-76
2021/07/07 14:21:13;;;;;;;3.70;2.15;;;38.30;27.40;;;;;;6310947;28;20032;-76
2021/07/07 14:24:14;;;;;;;3.10;1.90;;;37.30;28.60;;;;;;6302706;28;20112;-75
2021/07/07 14:27:15;;;;;;;2.70;1.88;;;36.20;29.70;;;;;;6313378;28;20033;-75
2021/07/07 14:30:17;;;;;;;3.17;2.13;;;36.10;30.00;;;;;;6290783;28;20028;-75
2021/07/07 14:33:18;;;;;;;3.35;2.17;;;35.70;30.40;;;;;;6258172;28;20475;-75
2021/07/07 14:36:20;;;;;;;4.60;2.53;;;35.10;31.30;;;;;;6277301;28;20109;-75
2021/07/07 14:39:24;;;;;;;4.38;2.30;;;34.30;32.50;;;;;;6254284;28;20488;-75
2021/07/07 14:42:27;;;;;;;3.25;2.38;;;33.40;34.60;;;;;;6269633;28;20040;-74
2021/07/07 14:45:28;;;;;;;8.25;2.30;;;32.60;35.30;;;;;;6260214;28;20057;-75
2021/07/07 14:48:31;;;;;;;3.50;2.00;;;32.00;36.30;;;;;;6269722;28;20116;-74
2021/07/07 14:51:33;;;;;;;7.50;2.38;;;31.60;37.00;;;;;;6284946;28;20039;-75
2021/07/07 14:54:34;;;;;;;24.42;3.72;;;31.30;37.70;;;;;;6290056;28;20052;-74
2021/07/07 14:57:38;;;;;;;8.18;2.40;;;31.00;38.20;;;;;;6311063;28;20082;-75
2021/07/07 15:00:39;;;;;;;4.78;2.13;;;30.80;38.90;;;;;;6311168;28;20111;-75
2021/07/07 15:03:40;;;;;;;4.20;2.17;;;30.70;39.10;;;;;;6309382;28;20349;-74
2021/07/07 15:06:41;;;;;;;4.70;2.33;;;30.60;39.50;;;;;;6302020;28;20047;-75
2021/07/07 15:09:44;;;;;;;3.33;2.20;;;30.50;39.60;;;;;;6303033;28;20123;-74
2021/07/07 15:12:46;;;;;;;4.13;1.77;;;30.40;40.00;;;;;;6279096;28;20037;-75
2021/07/07 15:15:47;;;;;;;6.47;2.20;;;30.20;40.50;;;;;;6292105;28;20060;-74
2021/07/07 15:18:48;;;;;;;6.85;1.98;;;30.00;40.70;;;;;;6294208;28;20049;-75
2021/07/07 15:21:53;;;;;;;6.97;2.20;;;29.90;41.10;;;;;;6290360;28;20037;-76
2021/07/07 15:24:54;;;;;;;61.67;5.03;;;29.80;41.40;;;;;;6273147;28;20033;-75
2021/07/07 15:27:56;;;;;;;49.58;4.03;;;29.70;41.70;;;;;;6273655;28;20044;-75
2021/07/07 15:30:57;;;;;;;3.00;1.65;;;29.50;41.70;;;;;;6274378;28;20060;-75
2021/07/07 15:33:58;;;;;;;7.43;2.22;;;29.50;42.00;;;;;;6310470;28;20040;-75
2021/07/07 15:36:59;;;;;;;24.92;2.85;;;29.60;42.10;;;;;;6284050;28;20399;-75
2021/07/07 15:40:00;;;;;;;13.18;2.03;;;29.70;41.90;;;;;;6274874;28;20502;-75
2021/07/07 15:43:02;;;;;;;3.05;2.00;;;29.90;41.50;;;;;;6274935;28;20453;-76
2021/07/07 15:46:03;;;;;;;10.20;2.35;;;30.00;41.40;;;;;;6292490;28;20039;-74
2021/07/07 15:49:05;;;;;;;2.85;1.50;;;30.00;41.50;;;;;;6300523;28;20029;-75